Time;durP1;ratioP1;P1;durP2;ratioP2;P2;SDS_P1;SDS_P2;PMS_P1;PMS_P2;Temp;Humidity;BMP_temperature;BMP_pressure;BME280_temperature;BME280_humidity;BME280_pressure;Samples;Min_cycle;Max_cycle;Signal;HPM_P1;HPM_P2
2022/01/09 00:02:26;;;;;;;40.85;22.55;;;;;;;-2.12;86.55;100367.75;1671137;86;21350;-81
2022/01/09 00:05:32;;;;;;;31.95;14.47;;;;;;;-2.10;86.91;100363.17;1671107;86;21220;-79
2022/01/09 00:08:38;;;;;;;51.28;33.35;;;;;;;-2.09;87.46;100355.02;1671152;86;21331;-82
2022/01/09 00:11:43;;;;;;;37.10;20.68;;;;;;;-2.05;87.71;100353.02;1671269;86;21356;-81
2022/01/09 00:14:48;;;;;;;50.33;31.57;;;;;;;-2.01;87.71;100342.98;1671274;86;21170;-82
2022/01/09 00:17:54;;;;;;;39.92;19.27;;;;;;;-1.98;87.89;100339.61;1671104;86;21301;-78
2022/01/09 00:20:59;;;;;;;55.63;37.50;;;;;;;-1.99;88.09;100337.89;1671186;86;21849;-78
2022/01/09 00:24:03;;;;;;;34.55;18.57;;;;;;;-2.00;88.36;100336.66;1671159;86;21217;-78
2022/01/09 00:27:09;;;;;;;39.85;23.73;;;;;;;-1.99;88.53;100320.95;1671154;86;21221;-78
2022/01/09 00:30:17;;;;;;;54.05;37.67;;;;;;;-1.99;88.77;100315.11;1675066;84;21331;-82
2022/01/09 00:33:22;;;;;;;49.27;33.50;;;;;;;-1.99;88.87;100308.41;1684927;85;21296;-82
2022/01/09 00:36:28;;;;;;;49.53;29.72;;;;;;;-1.98;88.93;100294.52;1684801;85;21331;-78
2022/01/09 00:39:32;;;;;;;44.50;29.50;;;;;;;-1.98;88.90;100280.63;1684925;85;21296;-78
2022/01/09 00:42:37;;;;;;;37.53;21.45;;;;;;;-1.98;88.75;100280.63;1684790;85;21338;-82
2022/01/09 00:45:45;;;;;;;52.43;36.50;;;;;;;-2.01;88.77;100270.61;1684829;85;21205;-78
2022/01/09 00:48:49;;;;;;;58.68;40.35;;;;;;;-2.01;89.11;100259.41;1684843;85;21224;-78
2022/01/09 00:51:55;;;;;;;53.40;34.30;;;;;;;-2.01;89.27;100263.42;1684800;85;21753;-81
2022/01/09 00:55:00;;;;;;;53.63;32.40;;;;;;;-2.03;89.43;100257.28;1684914;85;21343;-82
2022/01/09 00:58:06;;;;;;;49.03;32.60;;;;;;;-2.02;89.55;100252.77;1686167;83;21312;-81
2022/01/09 01:01:11;;;;;;;53.98;38.63;;;;;;;-2.02;89.57;100255.45;1688368;83;21204;-77
2022/01/09 01:04:17;;;;;;;49.90;33.38;;;;;;;-2.01;89.29;100258.55;1686665;83;21192;-77
2022/01/09 01:07:23;;;;;;;42.78;29.67;;;;;;;-1.99;89.33;100266.85;1684690;85;21350;-78
2022/01/09 01:10:29;;;;;;;44.27;26.45;;;;;;;-1.97;89.19;100262.75;1683412;84;21203;-78
2022/01/09 01:13:34;;;;;;;53.83;38.98;;;;;;;-1.98;89.05;100259.67;1684879;85;21324;-77
2022/01/09 01:16:39;;;;;;;36.95;22.95;;;;;;;-1.98;89.10;100255.64;1684730;85;21200;-78
2022/01/09 01:19:44;;;;;;;53.78;39.58;;;;;;;-1.98;89.05;100240.91;1684876;85;21161;-78
2022/01/09 01:22:51;;;;;;;41.50;27.60;;;;;;;-1.99;89.17;100246.75;1684860;85;21244;-82
2022/01/09 01:26:00;;;;;;;50.70;32.38;;;;;;;-1.99;89.29;100236.02;1684827;85;21824;-82
2022/01/09 01:29:04;;;;;;;82.75;61.40;;;;;;;-1.99;89.32;100209.70;1684699;85;21323;-82
2022/01/09 01:32:08;;;;;;;35.60;23.77;;;;;;;-1.95;89.41;100197.83;1683530;85;21312;-77
2022/01/09 01:35:14;;;;;;;78.55;60.95;;;;;;;-1.93;89.47;100197.23;1684691;85;21233;-82
2022/01/09 01:38:19;;;;;;;52.67;41.75;;;;;;;-1.95;89.76;100187.10;1684933;85;21650;-81
2022/01/09 01:41:25;;;;;;;38.38;26.20;;;;;;;-1.95;90.18;100189.78;1684815;85;21375;-78
2022/01/09 01:44:29;;;;;;;84.50;63.63;;;;;;;-1.97;90.48;100183.67;1684808;85;21889;-80
2022/01/09 01:47:35;;;;;;;60.30;43.87;;;;;;;-1.98;90.95;100188.15;1684699;85;21197;-82
2022/01/09 01:50:42;;;;;;;77.95;57.95;;;;;;;-1.97;91.25;100180.52;1684699;85;21735;-82
2022/01/09 01:53:47;;;;;;;60.28;41.48;;;;;;;-1.93;91.73;100175.33;1684853;85;21296;-78
2022/01/09 01:56:52;;;;;;;43.42;24.92;;;;;;;-1.92;92.28;100175.70;1684787;85;21220;-79
2022/01/09 01:59:57;;;;;;;120.00;91.57;;;;;;;-1.90;92.59;100171.09;1684955;85;21315;-78
2022/01/09 02:03:03;;;;;;;57.53;42.03;;;;;;;-1.87;92.92;100160.17;1684691;85;21212;-78
2022/01/09 02:06:09;;;;;;;50.58;33.15;;;;;;;-1.86;93.43;100157.02;1684860;85;21836;-78
2022/01/09 02:09:14;;;;;;;95.38;74.37;;;;;;;-1.86;93.99;100157.87;1684870;85;21181;-78
2022/01/09 02:12:19;;;;;;;69.65;44.50;;;;;;;-1.85;94.39;100155.56;1683303;85;21772;-82
2022/01/09 02:15:46;;;;;;;93.25;66.25;;;;;;;-1.85;95.12;100147.52;1684820;85;21320;-78
2022/01/09 02:18:52;;;;;;;95.28;67.95;;;;;;;-1.81;95.63;100145.50;1684594;85;21315;-78
2022/01/09 02:21:59;;;;;;;48.02;32.90;;;;;;;-1.76;96.14;100141.17;1684846;85;21339;-78
2022/01/09 02:25:06;;;;;;;93.62;68.15;;;;;;;-1.74;96.48;100127.17;1684911;85;21778;-82
2022/01/09 02:28:11;;;;;;;106.10;72.30;;;;;;;-1.70;96.83;100124.66;1684760;85;21197;-78
2022/01/09 02:31:17;;;;;;;49.25;29.57;;;;;;;-1.69;97.04;100118.36;1684280;85;21201;-78
2022/01/09 02:34:21;;;;;;;44.18;29.00;;;;;;;-1.69;97.42;100119.70;1684829;85;21318;-77
2022/01/09 02:37:27;;;;;;;51.65;34.88;;;;;;;-1.67;97.79;100116.42;1684912;85;21338;-82
2022/01/09 02:40:32;;;;;;;55.85;36.33;;;;;;;-1.67;98.15;100110.58;1684811;85;21363;-82
2022/01/09 02:43:37;;;;;;;113.65;86.90;;;;;;;-1.65;98.62;100102.41;1684802;85;21296;-78
2022/01/09 02:49:48;;;;;;;75.45;50.90;;;;;;;-1.64;99.70;100090.75;1684781;85;21298;-78
2022/01/09 02:52:52;;;;;;;58.08;39.55;;;;;;;-1.65;100.00;100089.00;1684836;85;21339;-82
2022/01/09 02:55:56;;;;;;;73.75;52.05;;;;;;;-1.64;100.00;100088.92;1684851;85;21323;-82
2022/01/09 02:59:01;;;;;;;82.62;54.23;;;;;;;-1.65;100.00;100071.08;1684878;85;21183;-79
2022/01/09 03:02:06;;;;;;;49.15;32.50;;;;;;;-1.66;100.00;100062.67;1683835;85;21325;-82
2022/01/09 03:05:12;;;;;;;87.17;59.15;;;;;;;-1.64;100.00;100071.97;1684850;85;21216;-82
2022/01/09 03:08:17;;;;;;;71.75;48.83;;;;;;;-1.65;100.00;100062.19;1684872;85;21292;-82
2022/01/09 03:11:23;;;;;;;46.98;26.65;;;;;;;-1.63;100.00;100058.45;1684226;85;21204;-81
2022/01/09 03:14:27;;;;;;;80.05;64.80;;;;;;;-1.64;100.00;100067.47;1684917;85;21771;-78
2022/01/09 03:17:33;;;;;;;59.45;43.52;;;;;;;-1.62;100.00;100056.63;1683329;85;21769;-78
2022/01/09 03:20:39;;;;;;;80.35;60.17;;;;;;;-1.61;100.00;100071.26;1684748;85;21773;-78
2022/01/09 03:23:43;;;;;;;66.25;47.08;;;;;;;-1.58;100.00;100064.84;1684841;85;21181;-81
2022/01/09 03:26:49;;;;;;;72.80;54.50;;;;;;;-1.60;100.00;100046.18;1684704;85;21343;-82
2022/01/09 03:29:55;;;;;;;53.83;37.10;;;;;;;-1.58;100.00;100053.63;1684816;85;21319;-78
2022/01/09 03:33:01;;;;;;;42.67;28.05;;;;;;;-1.55;100.00;100053.91;1684985;84;21357;-78
2022/01/09 03:36:06;;;;;;;33.95;21.80;;;;;;;-1.56;100.00;100053.02;1684815;85;21352;-78
2022/01/09 03:39:10;;;;;;;81.17;55.20;;;;;;;-1.55;100.00;100044.52;1684830;85;21180;-78
2022/01/09 03:42:15;;;;;;;48.92;28.60;;;;;;;-1.54;100.00;100043.55;1684591;85;21880;-82
2022/01/09 03:45:20;;;;;;;41.37;25.35;;;;;;;-1.57;100.00;100041.07;1684888;85;21303;-82
2022/01/09 03:48:26;;;;;;;69.80;49.85;;;;;;;-1.59;100.00;100043.02;1684869;85;21323;-82
2022/01/09 03:51:36;;;;;;;39.23;27.55;;;;;;;-1.63;100.00;100044.18;1684765;85;21216;-77
2022/01/09 03:54:38;;;;;;;59.75;36.75;;;;;;;-1.63;100.00;100028.09;1684792;85;21343;-82
2022/01/09 03:57:44;;;;;;;54.90;38.55;;;;;;;-1.62;100.00;100023.09;1684782;85;21299;-78
2022/01/09 04:00:49;;;;;;;34.13;20.23;;;;;;;-1.58;100.00;100029.97;1684667;85;21397;-82
2022/01/09 04:03:55;;;;;;;62.67;48.13;;;;;;;-1.59;100.00;100027.77;1684806;85;21316;-78
2022/01/09 04:07:00;;;;;;;56.83;40.35;;;;;;;-1.59;100.00;100024.23;1684732;85;21300;-78
2022/01/09 04:10:05;;;;;;;60.12;40.40;;;;;;;-1.60;100.00;100017.13;1684853;85;21176;-82
2022/01/09 04:13:10;;;;;;;50.48;37.33;;;;;;;-1.60;100.00;100017.13;1684755;85;21224;-79
2022/01/09 04:16:16;;;;;;;35.65;21.07;;;;;;;-1.59;100.00;100020.22;1684811;85;21869;-78
2022/01/09 04:19:20;;;;;;;51.30;34.73;;;;;;;-1.57;100.00;100012.91;1684788;85;21863;-78
2022/01/09 04:22:25;;;;;;;44.90;30.10;;;;;;;-1.58;100.00;100012.05;1684730;85;21622;-80
2022/01/09 04:25:24;;;;;;;40.33;27.60;;;;;;;-1.59;100.00;100011.68;1684791;85;21371;-78
2022/01/09 04:28:17;;;;;;;58.15;43.30;;;;;;;-1.58;100.00;100001.32;1684764;85;21173;-78
2022/01/09 04:31:24;;;;;;;44.98;27.55;;;;;;;-1.58;100.00;100001.32;1684952;85;21335;-81
2022/01/09 04:34:30;;;;;;;36.48;23.47;;;;;;;-1.58;100.00;99988.39;1683892;85;21351;-82
2022/01/09 04:37:37;;;;;;;35.60;22.05;;;;;;;-1.58;100.00;99991.94;1684876;85;21299;-78
2022/01/09 04:40:42;;;;;;;33.60;18.45;;;;;;;-1.58;100.00;100005.34;1684751;85;21742;-78
2022/01/09 04:43:49;;;;;;;60.50;43.68;;;;;;;-1.58;100.00;99997.78;1684836;85;21180;-78
2022/01/09 04:47:03;;;;;;;29.45;16.40;;;;;;;-1.59;100.00;100001.44;1684753;85;21334;-82
2022/01/09 04:50:03;;;;;;;;;;;;;;;-1.56;100.00;100002.55;1687295;85;21857;-82
2022/01/09 04:53:09;;;;;;;56.02;27.32;;;;;;;-1.57;100.00;99999.01;1684759;85;20254;-82
2022/01/09 04:56:15;;;;;;;35.95;16.52;;;;;;;-1.56;100.00;99994.50;1684672;85;21372;-78
2022/01/09 04:59:19;;;;;;;34.50;19.85;;;;;;;-1.56;100.00;99991.33;1684856;85;21296;-82
2022/01/09 05:02:25;;;;;;;33.40;16.60;;;;;;;-1.57;100.00;99989.62;1684729;85;21228;-82
2022/01/09 05:05:30;;;;;;;51.28;29.15;;;;;;;-1.56;100.00;99985.96;1684643;85;21319;-82
2022/01/09 05:08:36;;;;;;;42.20;27.22;;;;;;;-1.56;100.00;99981.08;1684864;85;21299;-82
2022/01/09 05:11:42;;;;;;;37.88;24.27;;;;;;;-1.54;100.00;99985.87;1684763;85;21339;-82
2022/01/09 05:14:47;;;;;;;35.00;20.27;;;;;;;-1.54;100.00;99996.61;1684904;85;21184;-79
2022/01/09 05:17:57;;;;;;;36.50;23.22;;;;;;;-1.54;100.00;99988.56;1684730;85;21350;-78
2022/01/09 05:20:59;;;;;;;66.42;55.12;;;;;;;-1.51;100.00;99979.42;1684637;85;21303;-82
2022/01/09 05:24:04;;;;;;;68.40;51.80;;;;;;;-1.49;100.00;99962.75;1684883;85;21909;-79
2022/01/09 05:27:09;;;;;;;50.23;32.60;;;;;;;-1.47;100.00;99963.00;1684817;85;21331;-78
2022/01/09 05:30:15;;;;;;;48.30;36.08;;;;;;;-1.45;100.00;99955.72;1684737;85;21296;-78
2022/01/09 05:33:21;;;;;;;43.63;31.68;;;;;;;-1.45;100.00;99948.16;1684789;85;21430;-79
2022/01/09 05:36:26;;;;;;;48.38;33.73;;;;;;;-1.44;100.00;99950.73;1681341;85;21633;-78
2022/01/09 05:39:32;;;;;;;42.85;28.55;;;;;;;-1.43;100.00;99943.05;1681937;85;21868;-81
2022/01/09 05:42:37;;;;;;;36.20;22.82;;;;;;;-1.41;100.00;99957.23;1681933;85;21180;-82
2022/01/09 05:45:41;;;;;;;53.63;37.80;;;;;;;-1.38;100.00;99948.94;1682069;85;21646;-82
2022/01/09 05:48:45;;;;;;;66.12;49.70;;;;;;;-1.34;100.00;99955.80;1681917;85;21284;-82
2022/01/09 05:51:50;;;;;;;39.70;21.52;;;;;;;-1.35;100.00;99955.92;1681830;85;21331;-78
2022/01/09 05:54:56;;;;;;;73.02;52.95;;;;;;;-1.38;100.00;99942.23;1681740;85;21240;-78
2022/01/09 05:58:02;;;;;;;36.80;21.80;;;;;;;-1.38;100.00;99938.20;1681919;85;21304;-78
2022/01/09 06:01:07;;;;;;;41.02;30.45;;;;;;;-1.36;100.00;99937.63;1681855;85;21327;-78
2022/01/09 06:04:13;;;;;;;39.03;27.22;;;;;;;-1.37;100.00;99938.58;1681937;85;21177;-82
2022/01/09 06:07:18;;;;;;;38.88;25.05;;;;;;;-1.36;100.00;99933.61;1681837;85;21355;-78
2022/01/09 06:10:24;;;;;;;35.30;23.40;;;;;;;-1.37;100.00;99938.58;1680450;85;21197;-82
2022/01/09 06:13:30;;;;;;;29.92;17.17;;;;;;;-1.36;100.00;99933.61;1681913;85;21253;-82
2022/01/09 06:16:35;;;;;;;36.58;23.57;;;;;;;-1.35;100.00;99935.80;1681898;85;21905;-82
2022/01/09 06:19:42;;;;;;;21.77;14.55;;;;;;;-1.37;100.00;99935.89;1681895;85;21289;-82
2022/01/09 06:22:48;;;;;;;29.80;13.78;;;;;;;-1.41;100.00;99926.38;1681943;85;21189;-82
2022/01/09 06:25:54;;;;;;;38.58;20.08;;;;;;;-1.42;100.00;99916.58;1681822;85;21880;-82
2022/01/09 06:28:59;;;;;;;45.05;31.68;;;;;;;-1.46;100.00;99911.55;1681922;85;21303;-82
2022/01/09 06:32:04;;;;;;;31.20;16.50;;;;;;;-1.46;100.00;99919.11;1681813;85;21873;-82
2022/01/09 06:35:08;;;;;;;53.23;38.23;;;;;;;-1.44;100.00;99919.88;1681893;85;21844;-78
2022/01/09 06:38:15;;;;;;;38.75;28.00;;;;;;;-1.42;100.00;99919.75;1669796;85;21335;-77
2022/01/09 06:41:20;;;;;;;37.50;22.30;;;;;;;-1.37;100.00;99922.48;1671059;86;21332;-82
2022/01/09 06:44:26;;;;;;;30.35;17.17;;;;;;;-1.31;100.00;99926.08;1671078;86;21276;-81
2022/01/09 06:47:31;;;;;;;45.33;30.20;;;;;;;-1.31;100.00;99915.34;1671204;86;21277;-78
2022/01/09 06:50:36;;;;;;;36.58;23.65;;;;;;;-1.31;100.00;99919.38;1671150;86;21225;-82
2022/01/09 06:53:44;;;;;;;27.30;17.15;;;;;;;-1.31;100.00;99914.49;1671142;86;21347;-79
2022/01/09 06:56:49;;;;;;;34.65;21.57;;;;;;;-1.29;100.00;99920.11;1669929;86;21243;-84
2022/01/09 06:59:55;;;;;;;33.53;21.48;;;;;;;-1.30;100.00;99901.45;1669716;86;21738;-84
2022/01/09 07:03:00;;;;;;;28.17;16.05;;;;;;;-1.27;100.00;99912.42;1671207;86;21296;-84
2022/01/09 07:06:07;;;;;;;32.88;20.12;;;;;;;-1.25;100.00;99887.20;1671138;85;21233;-83
2022/01/09 07:09:13;;;;;;;65.87;46.55;;;;;;;-1.21;100.00;99886.51;1671104;86;21292;-79
2022/01/09 07:12:22;;;;;;;37.98;23.35;;;;;;;-1.22;100.00;99879.40;1669998;85;21197;-85
2022/01/09 07:15:27;;;;;;;38.15;23.67;;;;;;;-1.19;100.00;99884.06;1671080;86;21379;-79
2022/01/09 07:18:33;;;;;;;36.33;25.68;;;;;;;-1.14;100.00;99887.76;1669694;86;21189;-84
2022/01/09 07:21:32;;;;;;;41.25;28.70;;;;;;;-1.12;100.00;99879.13;1671296;86;21321;-79
2022/01/09 07:24:37;;;;;;;33.23;20.52;;;;;;;-1.09;100.00;99879.73;1671098;86;21355;-79
2022/01/09 07:27:43;;;;;;;38.35;29.30;;;;;;;-1.04;100.00;99895.50;1671273;86;21311;-78
2022/01/09 07:30:48;;;;;;;34.33;21.42;;;;;;;-1.04;100.00;99888.30;1674602;83;21213;-83
2022/01/09 07:33:53;;;;;;;30.95;19.32;;;;;;;-1.02;100.00;99885.53;1675976;84;21285;-77
2022/01/09 07:36:58;;;;;;;38.08;23.75;;;;;;;-1.01;100.00;99888.58;1675650;83;21364;-78
2022/01/09 07:40:04;;;;;;;42.67;30.68;;;;;;;-0.98;100.00;99882.99;1681756;85;21347;-83
2022/01/09 07:43:08;;;;;;;30.02;19.05;;;;;;;-0.96;100.00;99891.78;1681805;85;21315;-78
2022/01/09 07:46:12;;;;;;;35.70;20.30;;;;;;;-0.94;100.00;99881.80;1681328;85;21881;-84
2022/01/09 07:49:18;;;;;;;36.73;22.85;;;;;;;-0.92;100.00;99879.84;1682028;85;21186;-78
2022/01/09 07:52:24;;;;;;;32.80;21.57;;;;;;;-0.86;100.00;99882.06;1681817;85;21334;-79
2022/01/09 07:55:29;;;;;;;36.77;23.00;;;;;;;-0.85;100.00;99877.09;1681910;85;21315;-78
2022/01/09 07:58:34;;;;;;;26.02;16.80;;;;;;;-0.84;100.00;99881.48;1681675;85;21321;-84
2022/01/09 08:01:39;;;;;;;30.92;19.65;;;;;;;-0.81;100.00;99881.23;1681846;85;21324;-83
2022/01/09 08:04:44;;;;;;;31.33;19.45;;;;;;;-0.79;100.00;99865.03;1681948;85;21292;-79
2022/01/09 08:07:50;;;;;;;39.40;20.08;;;;;;;-0.77;100.00;99879.18;1681842;85;21753;-79
2022/01/09 08:10:55;;;;;;;32.23;17.48;;;;;;;-0.74;100.00;99877.63;1681866;85;21851;-79
2022/01/09 08:14:01;;;;;;;32.03;15.80;;;;;;;-0.68;100.00;99869.58;1681928;85;21268;-79
2022/01/09 08:17:05;;;;;;;31.42;19.77;;;;;;;-0.65;100.00;99859.96;1681872;85;21343;-84
2022/01/09 08:20:11;;;;;;;41.15;24.77;;;;;;;-0.63;100.00;99844.08;1681693;85;21240;-79
2022/01/09 08:23:17;;;;;;;39.98;28.27;;;;;;;-0.57;100.00;99845.44;1681757;85;21177;-79
2022/01/09 08:26:23;;;;;;;43.80;29.87;;;;;;;-0.55;100.00;99836.80;1681251;85;21858;-85
2022/01/09 08:29:29;;;;;;;32.20;19.65;;;;;;;-0.53;100.00;99838.86;1681827;85;21324;-81
2022/01/09 08:32:34;;;;;;;39.88;18.73;;;;;;;-0.50;100.00;99837.78;1681843;85;21311;-83
2022/01/09 08:35:40;;;;;;;41.63;24.32;;;;;;;-0.50;100.00;99827.04;1681770;85;21314;-84
2022/01/09 08:38:48;;;;;;;36.05;22.05;;;;;;;-0.49;100.00;99817.51;1682119;84;21334;-79
2022/01/09 08:41:53;;;;;;;47.98;29.00;;;;;;;-0.48;100.00;99813.84;1681746;85;21244;-79
2022/01/09 08:44:58;;;;;;;99.17;79.07;;;;;;;-0.48;100.00;99811.15;1681813;85;21204;-79
2022/01/09 08:48:04;;;;;;;45.78;27.45;;;;;;;-0.45;100.00;99794.80;1681817;85;21197;-85
2022/01/09 08:51:09;;;;;;;32.88;19.00;;;;;;;-0.42;100.00;99797.27;1681773;85;21879;-78
2022/01/09 08:54:15;;;;;;;68.20;49.13;;;;;;;-0.43;100.00;99797.36;1681905;85;21818;-80
2022/01/09 08:57:24;;;;;;;38.85;23.50;;;;;;;-0.44;100.00;99781.73;1680594;85;21352;-84
2022/01/09 09:00:27;;;;;;;46.13;28.62;;;;;;;-0.43;100.00;99769.15;1681589;85;21371;-79
2022/01/09 09:03:34;;;;;;;48.58;32.35;;;;;;;-0.43;100.00;99765.97;1681835;85;21169;-84
2022/01/09 09:06:39;;;;;;;47.15;31.00;;;;;;;-0.43;100.00;99757.91;1681788;85;21805;-85
2022/01/09 09:09:45;;;;;;;76.02;55.35;;;;;;;-0.40;100.00;99753.65;1681900;85;21299;-83
2022/01/09 09:12:50;;;;;;;54.25;37.80;;;;;;;-0.31;100.00;99750.23;1681780;85;21165;-84
2022/01/09 09:15:55;;;;;;;65.22;44.88;;;;;;;-0.24;100.00;99743.03;1681853;85;21245;-85
2022/01/09 09:19:02;;;;;;;61.08;39.33;;;;;;;-0.20;100.00;99744.01;1680514;85;21188;-79
2022/01/09 09:22:07;;;;;;;60.95;43.83;;;;;;;-0.16;100.00;99741.94;1681761;85;21801;-84
2022/01/09 09:25:14;;;;;;;46.33;29.48;;;;;;;-0.13;100.00;99745.74;1680405;85;21812;-79
2022/01/09 09:28:20;;;;;;;54.88;36.42;;;;;;;-0.12;100.00;99733.51;1678136;85;21272;-83
2022/01/09 09:31:25;;;;;;;53.38;38.10;;;;;;;-0.11;100.00;99724.95;1681794;85;21220;-85
2022/01/09 09:34:31;;;;;;;50.45;36.73;;;;;;;-0.07;100.00;99729.11;1681759;85;21303;-85
2022/01/09 09:37:36;;;;;;;45.03;33.55;;;;;;;0.00;100.00;99724.97;1681696;85;21339;-82
2022/01/09 09:40:42;;;;;;;44.03;29.45;;;;;;;0.11;100.00;99723.59;1679764;85;21797;-79
2022/01/09 09:43:48;;;;;;;61.73;46.88;;;;;;;0.20;100.00;99720.66;1681837;85;21169;-83
2022/01/09 09:47:00;;;;;;;46.25;33.00;;;;;;;0.28;100.00;99716.83;1681317;85;21351;-84
2022/01/09 09:50:06;;;;;;;57.90;33.08;;;;;;;0.33;100.00;99722.72;1681805;85;21295;-79
2022/01/09 09:53:11;;;;;;;29.48;18.40;;;;;;;0.39;100.00;99714.13;1681648;85;21316;-83
2022/01/09 09:56:16;;;;;;;44.33;32.40;;;;;;;0.38;100.00;99716.97;1681777;85;21860;-79
2022/01/09 09:59:25;;;;;;;59.60;44.33;;;;;;;0.37;100.00;99716.58;1681783;85;21228;-79
2022/01/09 10:02:30;;;;;;;54.03;40.73;;;;;;;0.37;100.00;99698.59;1681685;85;21399;-83
2022/01/09 10:05:46;;;;;;;41.95;31.23;;;;;;;0.39;100.00;99691.76;1681786;85;21327;-84
2022/01/09 10:08:51;;;;;;;77.92;61.00;;;;;;;0.39;100.00;99691.76;1681896;85;21335;-78
2022/01/09 10:12:04;;;;;;;34.05;24.02;;;;;;;0.39;100.00;99675.62;1669501;85;21225;-84
2022/01/09 10:15:14;;;;;;;64.15;48.35;;;;;;;0.41;100.00;99670.45;1681817;85;21848;-84
2022/01/09 10:18:18;;;;;;;50.58;36.20;;;;;;;0.42;100.00;99684.27;1681845;85;21329;-84
2022/01/09 10:21:29;;;;;;;37.50;25.20;;;;;;;0.39;100.00;99674.27;1681907;85;21335;-79
2022/01/09 10:24:34;;;;;;;41.00;31.15;;;;;;;0.42;100.00;99676.19;1681752;85;21189;-82
2022/01/09 10:27:41;;;;;;;54.13;42.35;;;;;;;0.49;100.00;99678.75;1681890;85;21738;-81
2022/01/09 10:30:58;;;;;;;93.85;78.62;;;;;;;0.56;100.00;99680.92;1681804;85;21295;-79
2022/01/09 10:34:10;;;;;;;50.60;41.73;;;;;;;0.58;100.00;99677.63;1681941;85;21300;-80
2022/01/09 10:37:15;;;;;;;39.70;26.48;;;;;;;0.64;100.00;99671.23;1681822;85;21821;-79
2022/01/09 10:40:32;;;;;;;57.83;44.73;;;;;;;0.71;100.00;99672.94;1661086;84;21681;-83
2022/01/09 10:43:48;;;;;;;48.30;35.17;;;;;;;0.75;100.00;99663.59;1696991;84;21300;-83
2022/01/09 10:47:09;;;;;;;34.83;26.57;;;;;;;0.81;100.00;99660.90;1696951;84;21184;-79
2022/01/09 10:50:14;;;;;;;80.62;66.17;;;;;;;0.87;100.00;99660.36;1697124;84;21327;-79
2022/01/09 10:53:31;;;;;;;41.90;28.95;;;;;;;0.96;100.00;99660.93;1696981;84;21824;-83
2022/01/09 10:56:37;;;;;;;41.48;32.85;;;;;;;0.97;100.00;99657.24;1696978;84;21358;-83
2022/01/09 10:59:43;;;;;;;47.43;38.50;;;;;;;0.99;100.00;99660.19;1697093;84;21737;-83
2022/01/09 11:02:49;;;;;;;49.42;39.42;;;;;;;1.04;100.00;99650.86;1697115;84;21290;-83
2022/01/09 11:05:55;;;;;;;41.18;26.48;;;;;;;1.09;100.00;99649.97;1696874;84;21378;-83
2022/01/09 11:09:02;;;;;;;46.55;38.73;;;;;;;1.13;100.00;99649.58;1697065;84;21196;-82
2022/01/09 11:12:08;;;;;;;53.65;46.90;;;;;;;1.18;100.00;99639.25;1697074;84;21277;-83
2022/01/09 11:15:17;;;;;;;37.58;27.73;;;;;;;1.20;100.00;99637.27;1697070;84;21855;-78
2022/01/09 11:18:21;;;;;;;34.78;25.77;;;;;;;1.23;100.00;99634.81;1696865;84;21362;-83
2022/01/09 11:21:26;;;;;;;41.10;31.23;;;;;;;1.22;100.00;99633.96;1696975;84;21223;-77
2022/01/09 11:25:04;;;;;;;31.05;23.73;;;;;;;1.25;100.00;99635.52;1696930;84;21302;-80
2022/01/09 11:28:35;;;;;;;41.60;33.53;;;;;;;1.25;100.00;99634.17;1697068;84;21879;-79
2022/01/09 11:31:57;;;;;;;45.75;34.85;;;;;;;1.30;100.00;99627.89;1696840;84;21366;-81
2022/01/09 11:35:31;;;;;;;55.12;44.93;;;;;;;1.34;100.00;99628.48;1691455;84;21188;-82
2022/01/09 11:38:59;;;;;;;44.83;36.63;;;;;;;1.35;100.00;99635.07;1696882;84;21318;-78
2022/01/09 11:42:17;;;;;;;54.27;48.48;;;;;;;1.42;100.00;99625.98;1688152;84;21342;-82
2022/01/09 11:45:23;;;;;;;46.58;38.70;;;;;;;1.47;99.92;99625.08;1671304;86;21825;-82
2022/01/09 11:48:50;;;;;;;50.92;43.30;;;;;;;1.51;99.95;99617.08;1670966;86;21358;-82
2022/01/09 11:52:02;;;;;;;38.30;33.08;;;;;;;1.58;100.00;99617.38;1671133;86;21331;-81
2022/01/09 11:55:08;;;;;;;26.33;20.37;;;;;;;1.68;100.00;99619.11;1671058;86;21300;-77
2022/01/09 11:58:19;;;;;;;25.15;13.60;;;;;;;1.77;99.63;99613.41;1671131;86;21328;-82
2022/01/09 12:01:41;;;;;;;34.05;27.42;;;;;;;1.74;98.89;99615.89;1671102;86;21323;-82
2022/01/09 12:04:55;;;;;;;50.12;43.02;;;;;;;1.72;98.76;99610.27;1671079;86;21166;-79
2022/01/09 12:08:09;;;;;;;42.80;35.92;;;;;;;1.76;98.76;99598.22;1671090;86;21178;-79
2022/01/09 12:11:15;;;;;;;65.52;55.03;;;;;;;1.75;98.62;99601.41;1671206;86;21868;-77
2022/01/09 12:14:22;;;;;;;52.58;44.25;;;;;;;1.71;98.74;99587.84;1671217;86;21813;-80
2022/01/09 12:17:39;;;;;;;86.85;77.85;;;;;;;1.76;99.27;99595.02;1670313;85;21335;-81
2022/01/09 12:20:48;;;;;;;71.53;62.78;;;;;;;1.91;99.36;99596.83;1671225;86;21369;-78
2022/01/09 12:23:53;;;;;;;39.98;31.23;;;;;;;1.98;99.08;99594.45;1671213;86;21173;-82
2022/01/09 12:26:59;;;;;;;33.02;26.82;;;;;;;2.05;98.98;99592.89;1669863;85;21270;-81
2022/01/09 12:30:04;;;;;;;53.10;40.48;;;;;;;2.10;98.84;99579.83;1671016;86;21190;-82
2022/01/09 12:33:16;;;;;;;48.08;40.10;;;;;;;2.15;98.57;99582.95;1671053;86;21316;-82
2022/01/09 12:36:26;;;;;;;72.25;64.55;;;;;;;2.12;98.42;99584.61;1671099;86;21877;-82
2022/01/09 12:39:32;;;;;;;53.08;47.33;;;;;;;2.12;98.49;99579.21;1671170;86;21316;-77
2022/01/09 12:42:38;;;;;;;41.40;33.45;;;;;;;2.12;98.55;99575.63;1671583;84;21810;-77
2022/01/09 12:45:45;;;;;;;76.77;68.75;;;;;;;2.14;98.65;99566.42;1684776;85;21331;-82
2022/01/09 12:49:02;;;;;;;92.42;82.60;;;;;;;2.14;98.62;99565.57;1684691;85;21351;-77
2022/01/09 12:52:07;;;;;;;70.92;63.13;;;;;;;2.10;98.62;99560.09;1667992;85;21352;-81
2022/01/09 12:55:17;;;;;;;51.77;40.33;;;;;;;2.03;98.73;99559.81;1684765;85;21291;-78
2022/01/09 12:58:29;;;;;;;51.20;42.93;;;;;;;2.02;98.92;99552.69;1684498;85;21211;-79
2022/01/09 13:01:36;;;;;;;57.50;46.48;;;;;;;1.96;99.17;99559.51;1666780;85;21335;-77
2022/01/09 13:04:41;;;;;;;44.23;37.48;;;;;;;1.89;99.48;99556.17;1684854;85;21236;-81
2022/01/09 13:07:48;;;;;;;44.70;33.80;;;;;;;1.89;99.92;99555.67;1684784;85;21188;-77
2022/01/09 13:10:56;;;;;;;57.08;48.33;;;;;;;1.92;100.00;99555.38;1684431;85;21341;-77
2022/01/09 13:14:07;;;;;;;31.10;23.98;;;;;;;1.95;100.00;99563.20;1673249;85;21181;-82
2022/01/09 13:17:11;;;;;;;38.67;31.02;;;;;;;1.94;100.00;99559.30;1684733;85;21247;-77
2022/01/09 13:20:25;;;;;;;42.75;35.00;;;;;;;1.96;100.00;99555.96;1684488;85;21327;-78
2022/01/09 13:23:28;;;;;;;;;;;;;;;1.98;100.00;99548.09;1687290;85;21291;-82
2022/01/09 13:26:38;;;;;;;26.60;20.05;;;;;;;2.02;100.00;99559.44;1684645;85;20261;-77
2022/01/09 13:29:43;;;;;;;44.42;38.50;;;;;;;2.00;100.00;99558.23;1684753;85;21315;-82
2022/01/09 13:32:48;;;;;;;40.88;30.43;;;;;;;2.04;100.00;99564.21;1684774;85;21320;-78
2022/01/09 13:35:53;;;;;;;33.98;27.37;;;;;;;2.08;100.00;99558.90;1684731;85;21371;-81
2022/01/09 13:38:59;;;;;;;49.98;43.38;;;;;;;2.10;100.00;99558.25;1684749;85;21299;-80
2022/01/09 13:42:07;;;;;;;25.37;20.30;;;;;;;2.14;100.00;99556.12;1674491;85;21220;-82
2022/01/09 13:45:21;;;;;;;26.42;17.77;;;;;;;2.15;100.00;99551.92;1683106;85;21323;-77
2022/01/09 13:48:27;;;;;;;38.85;32.75;;;;;;;2.17;100.00;99551.31;1684867;85;21318;-77
2022/01/09 13:51:54;;;;;;;50.15;43.23;;;;;;;2.20;100.00;99555.05;1684261;85;21224;-81
2022/01/09 13:55:19;;;;;;;21.48;14.07;;;;;;;2.22;100.00;99555.78;1684979;85;21343;-81
2022/01/09 13:58:25;;;;;;;39.63;33.85;;;;;;;2.23;100.00;99552.59;1685392;85;21722;-81
2022/01/09 14:01:49;;;;;;;32.28;23.02;;;;;;;2.24;100.00;99555.12;1687210;83;21216;-80
2022/01/09 14:04:54;;;;;;;36.90;28.73;;;;;;;2.26;100.00;99551.81;1687284;85;21220;-76
2022/01/09 14:08:00;;;;;;;39.83;33.83;;;;;;;2.27;100.00;99549.46;1685454;85;21307;-81
2022/01/09 14:11:07;;;;;;;43.08;35.98;;;;;;;2.26;100.00;99549.61;1684316;85;21346;-81
2022/01/09 14:14:11;;;;;;;39.50;29.67;;;;;;;2.25;100.00;99549.23;1664948;85;21160;-78
2022/01/09 14:17:40;;;;;;;26.87;20.85;;;;;;;2.23;100.00;99545.34;1684754;85;21224;-81